createdAt,value
2018-07-17T00:00:37.511Z,26.16
2018-07-17T00:01:37.524Z,26.06
2018-07-17T00:02:37.536Z,25.96
2018-07-17T00:03:37.555Z,25.87
2018-07-17T00:04:37.716Z,26.16
2018-07-17T00:05:37.581Z,26.06
2018-07-17T00:06:37.598Z,27.02
2018-07-17T00:07:37.610Z,26.93
2018-07-17T00:08:37.625Z,27.50
2018-07-17T00:09:37.699Z,27.69
2018-07-17T00:10:37.653Z,27.69
2018-07-17T00:11:37.674Z,28.07
2018-07-17T00:12:37.750Z,28.07
2018-07-17T00:13:37.696Z,27.87
2018-07-17T00:14:37.813Z,27.59
2018-07-17T00:15:37.728Z,27.69
2018-07-17T00:16:37.745Z,27.69
2018-07-17T00:17:37.756Z,27.39
2018-07-17T00:18:37.772Z,27.49
2018-07-17T00:19:37.936Z,27.87
2018-07-17T00:20:37.808Z,28.16
2018-07-17T00:21:37.811Z,28.26
2018-07-17T00:22:37.828Z,28.16
2018-07-17T00:23:37.844Z,28.07
2018-07-17T00:24:37.860Z,28.26
2018-07-17T00:25:37.976Z,28.84
2018-07-17T00:26:37.885Z,29.32
2018-07-17T00:27:37.897Z,28.93
2018-07-17T00:28:37.913Z,29.30
2018-07-17T00:29:37.928Z,28.63
2018-07-17T00:30:38.103Z,28.55
2018-07-17T00:31:37.959Z,28.25
2018-07-17T00:32:37.976Z,28.92
2018-07-17T00:33:37.972Z,29.30
2018-07-17T00:34:38.000Z,28.25
2018-07-17T00:35:38.116Z,28.72
2018-07-17T00:36:38.032Z,28.82
2018-07-17T00:37:38.038Z,28.92
2018-07-17T00:38:38.043Z,28.63
2018-07-17T00:39:38.078Z,28.44
2018-07-17T00:40:38.231Z,28.63
2018-07-17T00:41:38.100Z,28.63
2018-07-17T00:42:38.111Z,28.44
2018-07-17T00:43:38.135Z,28.44
2018-07-17T00:44:38.140Z,28.25
2018-07-17T00:45:38.252Z,28.82
2018-07-17T00:46:38.168Z,29.30
2018-07-17T00:47:38.190Z,29.59
2018-07-17T00:48:38.181Z,29.69
2018-07-17T00:49:38.216Z,29.21
2018-07-17T00:50:38.327Z,29.88
2018-07-17T00:51:38.241Z,29.67
2018-07-17T00:52:38.249Z,29.67
2018-07-17T00:53:38.271Z,29.67
2018-07-17T00:54:38.289Z,30.15
2018-07-17T00:55:38.441Z,30.05
2018-07-17T00:56:38.301Z,30.05
2018-07-17T00:57:38.324Z,30.15
2018-07-17T00:58:38.328Z,30.54
2018-07-17T00:59:38.356Z,30.62
2018-07-17T01:00:38.516Z,30.81
2018-07-17T01:01:38.381Z,31.00
2018-07-17T01:02:38.381Z,31.20
2018-07-17T01:03:38.394Z,30.90
2018-07-17T01:04:38.421Z,31.10
2018-07-17T01:05:38.542Z,31.29
2018-07-17T01:06:38.448Z,31.48
2018-07-17T01:07:38.466Z,31.96
2018-07-17T01:08:38.484Z,31.77
2018-07-17T01:09:38.493Z,31.67
2018-07-17T01:10:38.615Z,32.06
2018-07-17T01:11:38.522Z,31.67
2018-07-17T01:12:38.536Z,31.67
2018-07-17T01:13:38.538Z,31.58
2018-07-17T01:14:38.564Z,31.58
2018-07-17T01:15:38.677Z,31.75
2018-07-17T01:16:38.580Z,31.95
2018-07-17T01:17:38.603Z,32.52
2018-07-17T01:18:38.619Z,33.19
2018-07-17T01:19:38.632Z,32.42
2018-07-17T01:20:38.795Z,32.42
2018-07-17T01:21:38.647Z,32.33
2018-07-17T01:22:38.661Z,33.58
2018-07-17T01:23:38.693Z,33.96
2018-07-17T01:24:38.687Z,34.53
2018-07-17T01:25:38.818Z,35.02
2018-07-17T01:26:38.724Z,35.11
2018-07-17T01:27:38.740Z,35.21
2018-07-17T01:28:38.754Z,35.49
2018-07-17T01:29:38.766Z,35.02
2018-07-17T01:30:38.786Z,35.40
2018-07-17T01:31:38.948Z,34.82
2018-07-17T01:32:38.812Z,34.52
2018-07-17T01:33:38.808Z,35.19
2018-07-17T01:34:38.882Z,35.28
2018-07-17T01:35:38.846Z,35.48
2018-07-17T01:36:38.964Z,35.19
2018-07-17T01:37:38.875Z,35.28
2018-07-17T01:38:38.874Z,35.67
2018-07-17T01:39:38.924Z,35.38
2018-07-17T01:40:38.918Z,35.67
2018-07-17T01:41:39.026Z,36.15
2018-07-17T01:42:38.944Z,35.96
2018-07-17T01:43:38.959Z,36.91
2018-07-17T01:44:38.966Z,37.68
2018-07-17T01:45:38.983Z,37.68
2018-07-17T01:46:39.098Z,37.57
2018-07-17T01:47:39.006Z,37.57
2018-07-17T01:48:39.032Z,37.59
2018-07-17T01:49:39.025Z,37.97
2018-07-17T01:50:39.038Z,38.14
2018-07-17T01:51:39.165Z,37.95
2018-07-17T01:52:39.075Z,38.05
2018-07-17T01:53:39.097Z,38.34
2018-07-17T01:54:39.102Z,38.14
2018-07-17T01:55:39.114Z,38.14
2018-07-17T01:56:39.287Z,37.95
2018-07-17T01:57:39.133Z,38.34
2018-07-17T01:58:39.152Z,38.34
2018-07-17T01:59:39.164Z,38.14
2018-07-17T02:00:39.180Z,38.24
2018-07-17T02:01:39.348Z,38.14
2018-07-17T02:02:39.206Z,38.05
2018-07-17T02:03:39.224Z,37.95
2018-07-17T02:04:39.227Z,38.14
2018-07-17T02:05:39.246Z,38.24
2018-07-17T02:06:39.360Z,39.10
2018-07-17T02:07:39.272Z,39.37
2018-07-17T02:08:39.288Z,39.18
2018-07-17T02:09:39.301Z,39.47
2018-07-17T02:10:39.309Z,39.94
2018-07-17T02:11:39.411Z,40.33
2018-07-17T02:12:39.338Z,40.90
2018-07-17T02:13:39.350Z,41.09
2018-07-17T02:14:39.365Z,40.90
2018-07-17T02:15:39.372Z,40.81
2018-07-17T02:16:39.485Z,40.71
2018-07-17T02:17:39.394Z,40.61
2018-07-17T02:18:39.434Z,40.64
2018-07-17T02:19:39.412Z,40.42
2018-07-17T02:20:39.440Z,40.44
2018-07-17T02:21:39.541Z,40.16
2018-07-17T02:22:39.468Z,39.77
2018-07-17T02:23:39.476Z,39.20
2018-07-17T02:24:39.490Z,39.29
2018-07-17T02:25:39.503Z,39.29
2018-07-17T02:26:39.616Z,38.91
2018-07-17T02:27:39.530Z,39.12
2018-07-17T02:28:39.527Z,39.41
2018-07-17T02:29:39.557Z,39.03
2018-07-17T02:30:39.576Z,39.22
2018-07-17T02:31:39.682Z,39.03
2018-07-17T02:32:39.595Z,39.10
2018-07-17T02:33:39.596Z,39.29
2018-07-17T02:34:39.605Z,38.72
2018-07-17T02:35:39.636Z,38.91
2018-07-17T02:36:39.733Z,39.39
2018-07-17T02:37:39.663Z,39.10
2018-07-17T02:38:39.671Z,39.01
2018-07-17T02:39:39.695Z,39.01
2018-07-17T02:40:39.745Z,39.39
2018-07-17T02:41:39.805Z,39.29
2018-07-17T02:42:39.723Z,38.91
2018-07-17T02:43:39.736Z,38.53
2018-07-17T02:44:39.746Z,38.34
2018-07-17T02:45:39.763Z,38.24
2018-07-17T02:46:39.778Z,39.08
2018-07-17T02:47:39.934Z,39.18
2018-07-17T02:48:39.800Z,39.08
2018-07-17T02:49:39.798Z,39.56
2018-07-17T02:50:39.828Z,40.04
2018-07-17T02:51:39.844Z,40.42
2018-07-17T02:52:40.003Z,40.04
2018-07-17T02:53:39.864Z,39.94
2018-07-17T02:54:39.858Z,39.85
2018-07-17T02:55:39.893Z,39.65
2018-07-17T02:56:39.890Z,39.65
2018-07-17T02:57:40.024Z,39.56
2018-07-17T02:58:39.917Z,39.94
2018-07-17T02:59:39.943Z,39.37
2018-07-17T03:00:39.952Z,39.28
2018-07-17T03:01:39.964Z,39.47
2018-07-17T03:02:40.088Z,39.58
2018-07-17T03:03:39.991Z,39.65
2018-07-17T03:04:40.007Z,39.28
2018-07-17T03:05:40.007Z,39.37
2018-07-17T03:06:40.027Z,39.94
2018-07-17T03:07:40.145Z,39.65
2018-07-17T03:08:40.057Z,39.65
2018-07-17T03:09:40.056Z,40.42
2018-07-17T03:10:40.077Z,40.42
2018-07-17T03:11:40.089Z,40.33
2018-07-17T03:12:40.210Z,40.81
2018-07-17T03:13:40.117Z,41.07
2018-07-17T03:14:40.120Z,41.07
2018-07-17T03:15:40.142Z,41.36
2018-07-17T03:16:40.162Z,40.88
2018-07-17T03:17:40.268Z,40.88
2018-07-17T03:18:40.184Z,40.59
2018-07-17T03:19:40.176Z,40.78
2018-07-17T03:20:40.208Z,41.46
2018-07-17T03:21:40.217Z,41.94
2018-07-17T03:22:40.343Z,42.03
2018-07-17T03:23:40.242Z,42.99
2018-07-17T03:24:40.388Z,42.87
2018-07-17T03:25:40.271Z,43.66
2018-07-17T03:26:40.286Z,43.73
2018-07-17T03:27:40.443Z,43.83
2018-07-17T03:28:40.309Z,43.26
2018-07-17T03:29:40.321Z,43.26
2018-07-17T03:30:40.334Z,43.73
2018-07-17T03:31:40.338Z,44.31
2018-07-17T03:32:40.461Z,43.73
2018-07-17T03:33:40.350Z,43.63
2018-07-17T03:34:40.386Z,43.44
2018-07-17T03:35:40.389Z,43.16
2018-07-17T03:36:40.387Z,44.02
2018-07-17T03:37:40.550Z,44.29
2018-07-17T03:38:40.432Z,44.67
2018-07-17T03:39:40.439Z,45.05
2018-07-17T03:40:40.441Z,44.76
2018-07-17T03:41:40.463Z,44.76
2018-07-17T03:42:40.623Z,44.67
2018-07-17T03:43:40.475Z,45.15
2018-07-17T03:44:40.502Z,46.01
2018-07-17T03:45:40.514Z,46.20
2018-07-17T03:46:40.524Z,45.91
2018-07-17T03:47:40.639Z,46.01
2018-07-17T03:48:40.546Z,45.62
2018-07-17T03:49:40.559Z,46.77
2018-07-17T03:50:40.571Z,46.77
2018-07-17T03:51:40.578Z,46.67
2018-07-17T03:52:40.695Z,46.67
2018-07-17T03:53:40.601Z,47.06
2018-07-17T03:54:40.623Z,47.63
2018-07-17T03:55:40.624Z,47.73
2018-07-17T03:56:40.649Z,47.53
2018-07-17T03:57:40.802Z,47.06
2018-07-17T03:58:40.667Z,46.20
2018-07-17T03:59:40.667Z,46.20
2018-07-17T04:00:40.688Z,45.91
2018-07-17T04:01:40.705Z,45.91
2018-07-17T04:02:40.712Z,45.81
2018-07-17T04:03:40.877Z,45.91
2018-07-17T04:04:40.733Z,47.06
2018-07-17T04:05:40.750Z,47.44
2018-07-17T04:06:40.746Z,47.34
2018-07-17T04:07:40.778Z,47.73
2018-07-17T04:08:40.815Z,47.25
2018-07-17T04:09:40.947Z,47.06
2018-07-17T04:10:40.813Z,45.91
2018-07-17T04:11:40.828Z,45.91
2018-07-17T04:12:40.834Z,45.43
2018-07-17T04:13:40.841Z,46.10
2018-07-17T04:14:41.010Z,46.01
2018-07-17T04:15:40.867Z,45.05
2018-07-17T04:16:40.878Z,45.24
2018-07-17T04:17:40.886Z,45.15
2018-07-17T04:18:40.907Z,45.24
2018-07-17T04:19:41.018Z,44.57
2018-07-17T04:20:40.925Z,44.29
2018-07-17T04:21:40.923Z,45.05
2018-07-17T04:22:40.953Z,45.51
2018-07-17T04:23:40.964Z,45.79
2018-07-17T04:24:41.081Z,46.27
2018-07-17T04:25:40.983Z,47.13
2018-07-17T04:26:41.002Z,47.71
2018-07-17T04:27:41.009Z,47.52
2018-07-17T04:28:41.004Z,47.99
2018-07-17T04:29:41.172Z,48.18
2018-07-17T04:30:41.048Z,48.18
2018-07-17T04:31:41.136Z,47.99
2018-07-17T04:32:41.070Z,47.13
2018-07-17T04:33:41.080Z,49.04
2018-07-17T04:34:41.247Z,48.57
2018-07-17T04:35:41.095Z,47.89
2018-07-17T04:36:41.113Z,48.47
2018-07-17T04:37:41.132Z,48.75
2018-07-17T04:38:41.145Z,48.85
2018-07-17T04:39:41.248Z,49.43
2018-07-17T04:40:41.145Z,48.85
2018-07-17T04:41:41.173Z,49.33
2018-07-17T04:42:41.185Z,49.80
2018-07-17T04:43:41.197Z,49.23
2018-07-17T04:44:41.313Z,48.57
2018-07-17T04:45:41.214Z,48.38
2018-07-17T04:46:41.230Z,47.99
2018-07-17T04:47:41.247Z,48.66
2018-07-17T04:48:41.250Z,48.57
2018-07-17T04:49:41.363Z,49.04
2018-07-17T04:50:41.275Z,49.23
2018-07-17T04:51:41.296Z,49.71
2018-07-17T04:52:41.301Z,49.80
2018-07-17T04:53:41.336Z,50.29
2018-07-17T04:54:41.461Z,49.62
2018-07-17T04:55:41.404Z,49.62
2018-07-17T04:56:41.354Z,49.71
2018-07-17T04:57:41.355Z,50.19
2018-07-17T04:58:41.376Z,50.67
2018-07-17T04:59:41.481Z,50.86
2018-07-17T05:00:41.399Z,51.72
2018-07-17T05:01:41.504Z,52.48
2018-07-17T05:02:41.424Z,52.29
2018-07-17T05:03:41.429Z,52.29
2018-07-17T05:04:41.590Z,52.39
2018-07-17T05:05:41.446Z,51.34
2018-07-17T05:06:41.466Z,51.91
2018-07-17T05:07:41.477Z,51.53
2018-07-17T05:08:41.468Z,52.20
2018-07-17T05:09:41.604Z,51.53
2018-07-17T05:10:41.503Z,51.05
2018-07-17T05:11:41.524Z,51.24
2018-07-17T05:12:41.532Z,51.62
2018-07-17T05:13:41.543Z,51.41
2018-07-17T05:14:41.656Z,51.41
2018-07-17T05:15:41.570Z,52.17
2018-07-17T05:16:41.580Z,52.55
2018-07-17T05:17:41.589Z,53.32
2018-07-17T05:18:41.589Z,52.65
2018-07-17T05:19:41.703Z,53.41
2018-07-17T05:20:41.610Z,54.18
2018-07-17T05:21:41.632Z,53.41
2018-07-17T05:22:41.641Z,53.70
2018-07-17T05:23:41.644Z,53.03
2018-07-17T05:24:41.765Z,53.03
2018-07-17T05:25:41.674Z,52.58
2018-07-17T05:26:41.689Z,52.08
2018-07-17T05:27:41.701Z,51.62
2018-07-17T05:28:41.713Z,51.24
2018-07-17T05:29:41.729Z,50.76
2018-07-17T05:30:41.888Z,50.95
2018-07-17T05:31:41.747Z,50.95
2018-07-17T05:32:41.758Z,50.38
2018-07-17T05:33:41.766Z,50.76
2018-07-17T05:34:41.777Z,50.86
2018-07-17T05:35:41.876Z,50.74
2018-07-17T05:36:41.800Z,50.67
2018-07-17T05:37:41.815Z,50.19
2018-07-17T05:38:41.825Z,50.09
2018-07-17T05:39:41.835Z,50.93
2018-07-17T05:40:41.970Z,50.26
2018-07-17T05:41:41.856Z,50.16
2018-07-17T05:42:41.869Z,50.07
2018-07-17T05:43:41.886Z,50.07
2018-07-17T05:44:41.887Z,51.50
2018-07-17T05:45:41.888Z,51.50
2018-07-17T05:46:41.908Z,51.41
2018-07-17T05:47:41.926Z,51.50
2018-07-17T05:48:41.936Z,50.74
2018-07-17T05:49:41.947Z,50.07
2018-07-17T05:50:42.044Z,49.11
2018-07-17T05:51:41.974Z,49.59
2018-07-17T05:52:41.982Z,49.78
2018-07-17T05:53:41.997Z,49.40
2018-07-17T05:54:42.049Z,48.16
2018-07-17T05:55:42.120Z,47.11
2018-07-17T05:56:42.023Z,49.59
2018-07-17T05:57:42.036Z,50.74
2018-07-17T05:58:42.047Z,50.74
2018-07-17T05:59:42.061Z,50.74
2018-07-17T06:00:42.170Z,51.31
2018-07-17T06:01:42.084Z,52.55
2018-07-17T06:02:42.102Z,52.84
2018-07-17T06:03:42.111Z,52.75
2018-07-17T06:04:42.119Z,51.60
2018-07-17T06:05:42.232Z,50.64
2018-07-17T06:06:42.136Z,50.74
2018-07-17T06:07:42.154Z,50.93
2018-07-17T06:08:42.155Z,52.26
2018-07-17T06:09:42.157Z,52.24
2018-07-17T06:10:42.283Z,52.24
2018-07-17T06:11:42.191Z,52.24
2018-07-17T06:12:42.204Z,51.86
2018-07-17T06:13:42.217Z,51.09
2018-07-17T06:14:42.225Z,52.91
2018-07-17T06:15:42.325Z,53.00
2018-07-17T06:16:42.239Z,53.00
2018-07-17T06:17:42.258Z,52.81
2018-07-17T06:18:42.274Z,53.49
2018-07-17T06:19:42.278Z,53.67
2018-07-17T06:20:42.443Z,54.15
2018-07-17T06:21:42.294Z,54.06
2018-07-17T06:22:42.320Z,53.86
2018-07-17T06:23:42.325Z,54.15
2018-07-17T06:24:42.337Z,53.96
2018-07-17T06:25:42.446Z,54.06
2018-07-17T06:26:42.363Z,53.77
2018-07-17T06:27:42.382Z,54.06
2018-07-17T06:28:42.386Z,53.67
2018-07-17T06:29:42.406Z,53.96
2018-07-17T06:30:42.503Z,53.20
2018-07-17T06:31:42.407Z,52.24
2018-07-17T06:32:42.429Z,52.53
2018-07-17T06:33:42.422Z,52.34
2018-07-17T06:34:42.445Z,52.15
2018-07-17T06:35:42.457Z,50.90
2018-07-17T06:36:42.461Z,51.19
2018-07-17T06:37:42.486Z,51.38
2018-07-17T06:38:42.502Z,51.83
2018-07-17T06:39:42.508Z,52.50
2018-07-17T06:40:42.621Z,53.17
2018-07-17T06:41:42.525Z,54.03
2018-07-17T06:42:42.542Z,54.44
2018-07-17T06:43:42.543Z,54.99
2018-07-17T06:44:42.619Z,54.99
2018-07-17T06:45:42.663Z,55.46
2018-07-17T06:46:42.583Z,55.27
2018-07-17T06:47:42.593Z,55.46
2018-07-17T06:48:42.588Z,54.60
2018-07-17T06:49:42.610Z,55.18
2018-07-17T06:50:42.767Z,55.65
2018-07-17T06:51:42.633Z,55.75
2018-07-17T06:52:42.645Z,56.51
2018-07-17T06:53:42.653Z,56.89
2018-07-17T06:54:42.653Z,57.18
2018-07-17T06:55:42.817Z,57.18
2018-07-17T06:56:42.677Z,57.46
2018-07-17T06:57:42.707Z,56.60
2018-07-17T06:58:42.711Z,56.99
2018-07-17T06:59:42.720Z,57.46
2018-07-17T07:00:42.737Z,57.18
2018-07-17T07:01:42.884Z,57.09
2018-07-17T07:02:42.774Z,57.09
2018-07-17T07:03:42.767Z,56.60
2018-07-17T07:04:42.776Z,56.51
2018-07-17T07:05:42.792Z,56.41
2018-07-17T07:06:42.799Z,56.41
2018-07-17T07:07:42.807Z,56.89
2018-07-17T07:08:42.819Z,57.37
2018-07-17T07:09:42.827Z,56.13
2018-07-17T07:10:42.838Z,55.46
2018-07-17T07:11:42.948Z,55.18
2018-07-17T07:12:42.858Z,55.46
2018-07-17T07:13:42.855Z,54.89
2018-07-17T07:14:42.880Z,56.23
2018-07-17T07:15:42.893Z,56.51
2018-07-17T07:16:43.002Z,56.41
2018-07-17T07:17:42.916Z,56.41
2018-07-17T07:18:42.927Z,56.87
2018-07-17T07:19:42.935Z,56.38
2018-07-17T07:20:42.931Z,55.15
2018-07-17T07:21:43.105Z,55.62
2018-07-17T07:22:42.960Z,56.41
2018-07-17T07:23:42.964Z,56.58
2018-07-17T07:24:42.987Z,57.06
2018-07-17T07:25:43.000Z,56.96
2018-07-17T07:26:43.159Z,56.67
2018-07-17T07:27:43.025Z,56.29
2018-07-17T07:28:43.027Z,56.01
2018-07-17T07:29:43.041Z,57.06
2018-07-17T07:30:43.036Z,57.82
2018-07-17T07:31:43.153Z,58.58
2018-07-17T07:32:43.058Z,59.06
2018-07-17T07:33:43.084Z,59.06
2018-07-17T07:34:43.096Z,59.73
2018-07-17T07:35:43.100Z,60.21
2018-07-17T07:36:43.114Z,60.49
2018-07-17T07:37:43.119Z,60.49
2018-07-17T07:38:43.133Z,60.21
2018-07-17T07:39:43.145Z,60.68
2018-07-17T07:40:43.143Z,59.82
2018-07-17T07:41:43.265Z,59.25
2018-07-17T07:42:43.196Z,58.97
2018-07-17T07:43:43.185Z,58.97
2018-07-17T07:44:43.197Z,59.44
2018-07-17T07:45:43.197Z,59.63
2018-07-17T07:46:43.354Z,60.30
2018-07-17T07:47:43.226Z,59.92
2018-07-17T07:48:43.236Z,59.06
2018-07-17T07:49:43.239Z,58.58
2018-07-17T07:50:43.258Z,58.11
2018-07-17T07:51:43.421Z,58.20
2018-07-17T07:52:43.269Z,58.29
2018-07-17T07:53:43.293Z,58.48
2018-07-17T07:54:43.292Z,59.44
2018-07-17T07:55:43.402Z,59.73
2018-07-17T07:56:43.468Z,59.25
2018-07-17T07:57:43.336Z,59.73
2018-07-17T07:58:43.352Z,59.44
2018-07-17T07:59:43.358Z,57.53
2018-07-17T08:00:43.363Z,56.58
2018-07-17T08:01:43.486Z,58.77
2018-07-17T08:02:43.386Z,60.87
2018-07-17T08:03:43.517Z,61.63
2018-07-17T08:04:43.463Z,61.44
2018-07-17T08:05:43.415Z,61.25
2018-07-17T08:06:43.526Z,61.63
2018-07-17T08:07:43.438Z,62.21
2018-07-17T08:08:43.448Z,62.02
2018-07-17T08:09:43.457Z,61.92
2018-07-17T08:10:43.468Z,61.83
2018-07-17T08:11:43.628Z,62.02
2018-07-17T08:12:43.489Z,61.44
2018-07-17T08:13:43.496Z,61.16
2018-07-17T08:14:43.510Z,60.21
2018-07-17T08:15:43.518Z,59.92
2018-07-17T08:16:43.636Z,60.68
2018-07-17T08:17:43.537Z,61.16
2018-07-17T08:18:43.548Z,61.35
2018-07-17T08:19:43.559Z,61.83
2018-07-17T08:20:43.568Z,61.63
2018-07-17T08:21:43.690Z,61.73
2018-07-17T08:22:43.575Z,61.92
2018-07-17T08:23:43.584Z,61.63
2018-07-17T08:24:43.616Z,61.83
2018-07-17T08:25:43.625Z,61.92
2018-07-17T08:26:43.785Z,62.68
2018-07-17T08:27:43.645Z,63.64
2018-07-17T08:28:43.650Z,62.59
2018-07-17T08:29:43.674Z,63.64
2018-07-17T08:30:43.675Z,63.64
2018-07-17T08:31:43.684Z,63.54
2018-07-17T08:32:43.792Z,62.88
2018-07-17T08:33:43.709Z,62.59
2018-07-17T08:34:43.713Z,63.07
2018-07-17T08:35:43.798Z,62.11
2018-07-17T08:36:43.733Z,62.21
2018-07-17T08:37:43.896Z,61.44
2018-07-17T08:38:43.759Z,61.07
2018-07-17T08:39:43.762Z,61.07
2018-07-17T08:40:43.779Z,59.92
2018-07-17T08:41:43.790Z,59.66
2018-07-17T08:42:43.898Z,59.47
2018-07-17T08:43:43.903Z,59.56
2018-07-17T08:44:43.817Z,59.09
2018-07-17T08:45:43.829Z,59.09
2018-07-17T08:46:43.842Z,58.42
2018-07-17T08:47:43.948Z,58.51
2018-07-17T08:48:43.842Z,58.61
2018-07-17T08:49:43.874Z,57.94
2018-07-17T08:50:43.886Z,57.85
2018-07-17T08:51:43.897Z,57.28
2018-07-17T08:52:44.049Z,56.99
2018-07-17T08:53:43.916Z,56.99
2018-07-17T08:54:43.975Z,56.80
2018-07-17T08:55:43.931Z,56.80
2018-07-17T08:56:43.941Z,57.18
2018-07-17T08:57:44.084Z,56.99
2018-07-17T08:58:43.958Z,57.18
2018-07-17T08:59:43.973Z,57.37
2018-07-17T09:00:43.982Z,57.56
2018-07-17T09:01:43.992Z,58.04
2018-07-17T09:02:44.011Z,57.75
2018-07-17T09:03:44.029Z,57.09
2018-07-17T09:04:44.025Z,56.80
2018-07-17T09:05:44.025Z,57.37
2018-07-17T09:06:44.045Z,56.70
2018-07-17T09:07:44.163Z,56.99
2018-07-17T09:08:44.058Z,57.09
2018-07-17T09:09:44.079Z,58.04
2018-07-17T09:10:44.089Z,57.94
2018-07-17T09:11:44.099Z,57.65
2018-07-17T09:12:44.213Z,57.75
2018-07-17T09:13:44.120Z,57.09
2018-07-17T09:14:44.136Z,56.60
2018-07-17T09:15:44.147Z,56.51
2018-07-17T09:16:44.153Z,56.99
2018-07-17T09:17:44.268Z,56.80
2018-07-17T09:18:44.173Z,56.99
2018-07-17T09:19:44.184Z,55.55
2018-07-17T09:20:44.193Z,56.32
2018-07-17T09:21:44.196Z,56.67
2018-07-17T09:22:44.313Z,57.82
2018-07-17T09:23:44.224Z,58.48
2018-07-17T09:24:44.243Z,57.72
2018-07-17T09:25:44.231Z,57.06
2018-07-17T09:26:44.258Z,56.48
2018-07-17T09:27:44.358Z,56.87
2018-07-17T09:28:44.274Z,57.06
2018-07-17T09:29:44.288Z,57.43
2018-07-17T09:30:44.300Z,58.29
2018-07-17T09:31:44.307Z,58.39
2018-07-17T09:32:44.423Z,59.63
2018-07-17T09:33:44.433Z,59.34
2018-07-17T09:34:44.338Z,59.28
2018-07-17T09:35:44.349Z,59.16
2018-07-17T09:36:44.359Z,59.28
2018-07-17T09:37:44.471Z,59.09
2018-07-17T09:38:44.381Z,58.99
2018-07-17T09:39:44.378Z,58.33
2018-07-17T09:40:44.403Z,58.33
2018-07-17T09:41:44.453Z,58.33
2018-07-17T09:42:44.529Z,58.61
2018-07-17T09:43:44.431Z,58.51
2018-07-17T09:44:44.429Z,58.90
2018-07-17T09:45:44.454Z,58.80
2018-07-17T09:46:44.497Z,58.80
2018-07-17T09:47:44.461Z,58.04
2018-07-17T09:48:44.471Z,57.75
2018-07-17T09:49:44.516Z,56.99
2018-07-17T09:50:44.503Z,56.70
2018-07-17T09:51:44.501Z,56.70
2018-07-17T09:52:44.631Z,56.60
2018-07-17T09:53:44.522Z,57.09
2018-07-17T09:54:44.547Z,57.94
2018-07-17T09:55:44.561Z,57.75
2018-07-17T09:56:44.569Z,58.77
2018-07-17T09:57:44.676Z,59.73
2018-07-17T09:58:44.586Z,59.73
2018-07-17T09:59:44.598Z,59.73
2018-07-17T10:00:44.594Z,59.63
2018-07-17T10:01:44.618Z,58.87
2018-07-17T10:02:44.618Z,59.06
2018-07-17T10:03:44.639Z,59.25
2018-07-17T10:04:44.677Z,59.53
2018-07-17T10:05:44.662Z,59.73
2018-07-17T10:06:44.679Z,60.21
2018-07-17T10:07:44.830Z,61.25
2018-07-17T10:08:44.692Z,61.16
2018-07-17T10:09:44.689Z,61.83
2018-07-17T10:10:44.701Z,61.54
2018-07-17T10:11:44.779Z,61.54
2018-07-17T10:12:44.831Z,61.63
2018-07-17T10:13:44.746Z,61.44
2018-07-17T10:14:44.753Z,61.44
2018-07-17T10:15:44.765Z,61.76
2018-07-17T10:16:44.776Z,61.73
2018-07-17T10:17:44.882Z,62.15
2018-07-17T10:18:44.800Z,61.76
2018-07-17T10:19:44.808Z,61.47
2018-07-17T10:20:44.823Z,61.47
2018-07-17T10:21:44.833Z,61.00
2018-07-17T10:22:44.975Z,61.10
2018-07-17T10:23:44.850Z,60.33
2018-07-17T10:24:44.845Z,59.76
2018-07-17T10:25:44.876Z,59.66
2018-07-17T10:26:44.977Z,58.99
2018-07-17T10:27:45.044Z,58.54
2018-07-17T10:28:44.900Z,58.61
2018-07-17T10:29:44.918Z,58.33
2018-07-17T10:30:44.919Z,57.97
2018-07-17T10:31:44.942Z,57.87
2018-07-17T10:32:45.099Z,57.02
2018-07-17T10:33:44.963Z,56.35
2018-07-17T10:34:44.965Z,57.02
2018-07-17T10:35:44.982Z,56.54
2018-07-17T10:36:44.994Z,55.58
2018-07-17T10:37:45.151Z,55.40
2018-07-17T10:38:45.055Z,55.04
2018-07-17T10:39:45.021Z,54.18
2018-07-17T10:40:45.028Z,54.18
2018-07-17T10:41:45.029Z,53.70
2018-07-17T10:42:45.156Z,53.89
2018-07-17T10:43:45.075Z,53.06
2018-07-17T10:44:45.080Z,52.39
2018-07-17T10:45:45.087Z,52.01
2018-07-17T10:46:45.126Z,52.77
2018-07-17T10:47:45.256Z,52.01
2018-07-17T10:48:45.126Z,51.43
2018-07-17T10:49:45.133Z,50.09
2018-07-17T10:50:45.149Z,50.00
2018-07-17T10:51:45.155Z,49.64
2018-07-17T10:52:45.269Z,48.59
2018-07-17T10:53:45.181Z,48.49
2018-07-17T10:54:45.188Z,47.92
2018-07-17T10:55:45.206Z,48.68
2018-07-17T10:56:45.219Z,48.61
2018-07-17T10:57:45.378Z,47.47
2018-07-17T10:58:45.256Z,47.08
2018-07-17T10:59:45.241Z,46.22
2018-07-17T11:00:45.268Z,46.80
2018-07-17T11:01:45.284Z,45.29
2018-07-17T11:02:45.397Z,45.57
2018-07-17T11:03:45.290Z,45.19
2018-07-17T11:04:45.328Z,44.90
2018-07-17T11:05:45.335Z,43.77
2018-07-17T11:06:45.347Z,43.68
2018-07-17T11:07:45.358Z,43.30
2018-07-17T11:08:45.377Z,43.20
2018-07-17T11:09:45.386Z,42.91
2018-07-17T11:10:45.389Z,42.65
2018-07-17T11:11:45.415Z,42.74
2018-07-17T11:12:45.583Z,43.41
2018-07-17T11:13:45.439Z,42.55
2018-07-17T11:14:45.436Z,42.36
2018-07-17T11:15:45.466Z,41.80
2018-07-17T11:16:45.477Z,41.13
2018-07-17T11:17:45.648Z,40.17
2018-07-17T11:18:45.512Z,39.72
2018-07-17T11:19:45.522Z,39.04
2018-07-17T11:20:45.542Z,39.62
2018-07-17T11:21:45.552Z,40.10
2018-07-17T11:22:45.567Z,38.66
2018-07-17T11:23:45.575Z,38.28
2018-07-17T11:24:45.593Z,37.70
2018-07-17T11:25:45.618Z,37.53
2018-07-17T11:26:45.633Z,37.34
2018-07-17T11:27:45.648Z,37.05
2018-07-17T11:28:45.652Z,36.95
2018-07-17T11:29:45.654Z,36.95
2018-07-17T11:30:45.689Z,36.20
2018-07-17T11:31:45.684Z,36.20
2018-07-17T11:32:45.707Z,36.78
2018-07-17T11:33:45.737Z,36.30
2018-07-17T11:34:45.748Z,36.01
2018-07-17T11:35:45.769Z,34.88
2018-07-17T11:36:45.784Z,34.88
2018-07-17T11:37:45.893Z,36.13
2018-07-17T11:38:45.818Z,35.66
2018-07-17T11:39:45.810Z,33.36
2018-07-17T11:40:45.847Z,33.36
2018-07-17T11:41:45.861Z,32.79
2018-07-17T11:42:45.979Z,33.18
2018-07-17T11:43:45.878Z,32.03
2018-07-17T11:44:45.912Z,31.27
2018-07-17T11:45:45.934Z,30.40
2018-07-17T11:46:45.945Z,30.02
2018-07-17T11:47:46.020Z,30.13
2018-07-17T11:48:45.975Z,29.27
2018-07-17T11:49:45.999Z,28.20
2018-07-17T11:50:46.008Z,28.40
2018-07-17T11:51:46.027Z,28.31
2018-07-17T11:52:46.191Z,28.59
2018-07-17T11:53:46.061Z,28.51
2018-07-17T11:54:46.077Z,29.18
2018-07-17T11:55:46.093Z,28.22
2018-07-17T11:56:46.114Z,28.14
2018-07-17T11:57:46.231Z,28.62
2018-07-17T11:58:46.151Z,28.62
2018-07-17T11:59:46.168Z,28.14
2018-07-17T12:00:46.163Z,28.33
2018-07-17T12:01:46.197Z,27.56
2018-07-17T12:02:46.219Z,27.17
2018-07-17T12:03:46.218Z,26.90
2018-07-17T12:04:46.252Z,25.54
2018-07-17T12:05:46.295Z,26.11
2018-07-17T12:06:46.281Z,26.98
2018-07-17T12:07:46.392Z,26.79
2018-07-17T12:08:46.318Z,26.21
2018-07-17T12:09:46.339Z,25.84
2018-07-17T12:10:46.359Z,26.21
2018-07-17T12:11:46.378Z,26.11
2018-07-17T12:12:46.522Z,26.21
2018-07-17T12:13:46.411Z,25.93
2018-07-17T12:14:46.431Z,26.02
2018-07-17T12:15:46.468Z,26.40
2018-07-17T12:16:46.455Z,25.16
2018-07-17T12:17:46.571Z,24.97
2018-07-17T12:18:46.512Z,24.39
2018-07-17T12:19:46.568Z,24.30
2018-07-17T12:20:46.546Z,24.40
2018-07-17T12:21:46.551Z,24.30
2018-07-17T12:22:46.685Z,24.21
2018-07-17T12:23:46.596Z,23.92
2018-07-17T12:24:46.616Z,23.07
2018-07-17T12:25:46.640Z,23.45
2018-07-17T12:26:46.655Z,23.07
2018-07-17T12:27:46.655Z,23.07
2018-07-17T12:28:46.684Z,22.39
2018-07-17T12:29:46.711Z,22.50
2018-07-17T12:30:46.733Z,22.10
2018-07-17T12:31:46.750Z,22.02
2018-07-17T12:32:46.871Z,22.40
2018-07-17T12:33:46.778Z,21.53
2018-07-17T12:34:46.860Z,21.24
2018-07-17T12:35:46.828Z,20.76
2018-07-17T12:36:46.853Z,21.44
2018-07-17T12:37:46.967Z,21.24
2018-07-17T12:38:46.878Z,21.04
2018-07-17T12:39:46.904Z,20.95
2018-07-17T12:40:46.924Z,20.86
2018-07-17T12:41:46.931Z,20.08
2018-07-17T12:42:47.102Z,20.38
2018-07-17T12:43:46.985Z,19.22
2018-07-17T12:44:46.992Z,19.03
2018-07-17T12:45:47.020Z,19.03
2018-07-17T12:46:47.041Z,18.64
2018-07-17T12:47:47.048Z,18.73
2018-07-17T12:48:47.085Z,19.50
2018-07-17T12:49:47.159Z,19.31
2018-07-17T12:50:47.130Z,19.50
2018-07-17T12:51:47.146Z,19.30
2018-07-17T12:52:47.265Z,20.26